createdAt,value
2024-02-19T00:02:46.012Z,43.95
2024-02-19T00:06:03.191Z,36.85
2024-02-19T00:09:21.689Z,41.58
2024-02-19T00:12:39.588Z,44.70
2024-02-19T00:15:57.524Z,45.33
2024-02-19T00:19:15.753Z,42.38
2024-02-19T00:22:33.101Z,46.05
2024-02-19T00:25:52.174Z,45.30
2024-02-19T00:29:09.934Z,40.80
2024-02-19T00:32:27.863Z,51.63
2024-02-19T00:35:45.684Z,46.03
2024-02-19T00:39:03.727Z,43.93
2024-02-19T00:42:21.423Z,39.18
2024-02-19T00:45:39.204Z,43.33
2024-02-19T00:48:56.502Z,41.05
2024-02-19T00:52:14.320Z,45.65
2024-02-19T00:55:32.985Z,45.63
2024-02-19T00:58:50.851Z,48.40
2024-02-19T01:02:08.082Z,46.15
2024-02-19T01:05:27.247Z,46.63
2024-02-19T01:08:45.028Z,44.00
2024-02-19T01:12:02.767Z,52.15
2024-02-19T01:15:21.136Z,42.15
2024-02-19T01:18:38.792Z,48.18
2024-02-19T01:21:56.613Z,45.70
2024-02-19T01:25:15.748Z,50.90
2024-02-19T01:28:33.472Z,51.93
2024-02-19T01:31:52.781Z,45.35
2024-02-19T01:35:10.516Z,49.98
2024-02-19T01:38:28.338Z,50.78
2024-02-19T01:41:45.776Z,47.75
2024-02-19T01:45:03.079Z,50.38
2024-02-19T01:48:20.977Z,47.58
2024-02-19T01:51:39.850Z,48.98
2024-02-19T01:54:58.028Z,52.40
2024-02-19T01:58:16.728Z,48.98
2024-02-19T02:01:37.330Z,54.48
2024-02-19T02:04:54.872Z,50.55
2024-02-19T02:08:13.338Z,52.35
2024-02-19T02:11:31.094Z,51.88
2024-02-19T02:14:48.979Z,48.98
2024-02-19T02:18:06.483Z,50.08
2024-02-19T02:21:24.292Z,46.03
2024-02-19T02:24:41.479Z,43.98
2024-02-19T02:27:59.596Z,51.58
2024-02-19T02:31:17.489Z,50.00
2024-02-19T02:34:36.615Z,52.90
2024-02-19T02:37:54.101Z,50.45
2024-02-19T02:41:11.955Z,49.00
2024-02-19T02:44:29.768Z,53.73
2024-02-19T02:47:47.229Z,52.73
2024-02-19T02:51:04.507Z,55.60
2024-02-19T02:54:21.948Z,50.83
2024-02-19T02:57:39.693Z,46.83
2024-02-19T03:00:57.582Z,52.43
2024-02-19T03:04:15.825Z,50.58
2024-02-19T03:07:33.632Z,49.18
2024-02-19T03:10:51.587Z,53.18
2024-02-19T03:14:11.898Z,54.28
2024-02-19T03:17:30.862Z,54.13
2024-02-19T03:20:48.735Z,52.63
2024-02-19T03:24:06.673Z,54.45
2024-02-19T03:27:24.697Z,46.43
2024-02-19T03:30:42.496Z,52.00
2024-02-19T03:34:00.371Z,53.58
2024-02-19T03:37:18.589Z,55.70
2024-02-19T03:40:36.567Z,54.55
2024-02-19T03:43:54.282Z,59.68
2024-02-19T03:47:13.259Z,59.08
2024-02-19T03:50:30.909Z,55.58
2024-02-19T03:53:48.333Z,59.60
2024-02-19T03:57:06.784Z,55.13
2024-02-19T04:00:26.036Z,52.05
2024-02-19T04:03:43.270Z,48.25
2024-02-19T04:07:01.789Z,57.08
2024-02-19T04:10:20.626Z,56.50
2024-02-19T04:13:38.401Z,54.20
2024-02-19T04:16:55.968Z,52.30
2024-02-19T04:20:16.032Z,54.90
2024-02-19T04:23:33.479Z,48.20
2024-02-19T04:26:50.930Z,50.80
2024-02-19T04:30:08.815Z,54.28
2024-02-19T04:33:26.987Z,53.60
2024-02-19T04:36:44.513Z,53.60
2024-02-19T04:40:02.288Z,52.00
2024-02-19T04:43:20.309Z,54.88
2024-02-19T04:46:39.168Z,53.88
2024-02-19T04:49:57.347Z,54.68
2024-02-19T04:53:17.071Z,58.53
2024-02-19T04:56:34.605Z,49.93
2024-02-19T04:59:52.315Z,56.43
2024-02-19T05:03:10.124Z,52.68
2024-02-19T05:06:30.139Z,58.73
2024-02-19T05:09:48.180Z,62.80
2024-02-19T05:13:05.929Z,55.90
2024-02-19T05:16:23.659Z,53.60
2024-02-19T05:19:41.491Z,53.48
2024-02-19T05:22:59.270Z,56.08
2024-02-19T05:26:17.134Z,57.60
2024-02-19T05:29:34.689Z,53.63
2024-02-19T05:32:52.413Z,54.25
2024-02-19T05:36:11.513Z,52.83
2024-02-19T05:39:29.195Z,51.73
2024-02-19T05:42:48.212Z,49.10
2024-02-19T05:46:05.886Z,57.28
2024-02-19T05:49:24.099Z,53.15
2024-02-19T05:52:41.929Z,47.05
2024-02-19T05:55:59.764Z,53.58
2024-02-19T05:59:17.714Z,51.90
2024-02-19T06:02:35.470Z,46.90
2024-02-19T06:05:55.368Z,51.40
2024-02-19T06:09:13.029Z,52.30
2024-02-19T06:12:30.501Z,50.95
2024-02-19T06:15:48.344Z,52.48
2024-02-19T06:19:06.108Z,46.55
2024-02-19T06:22:23.847Z,54.33
2024-02-19T06:25:41.674Z,60.18
2024-02-19T06:28:59.517Z,81.98
2024-02-19T06:32:18.192Z,53.33
2024-02-19T06:35:35.706Z,47.13
2024-02-19T06:38:53.400Z,52.55
2024-02-19T06:42:12.346Z,50.20
2024-02-19T06:45:29.951Z,48.60
2024-02-19T06:48:50.699Z,47.60
2024-02-19T06:52:07.859Z,56.08
2024-02-19T06:55:26.715Z,323.50
2024-02-19T06:58:44.509Z,65.83
2024-02-19T07:02:06.835Z,47.53
2024-02-19T07:05:22.205Z,51.23
2024-02-19T07:08:40.053Z,51.50
2024-02-19T07:11:57.694Z,48.68
2024-02-19T07:15:17.223Z,46.63
2024-02-19T07:18:34.890Z,48.65
2024-02-19T07:21:52.625Z,49.83
2024-02-19T07:25:17.341Z,57.88
2024-02-19T07:28:30.242Z,51.95
2024-02-19T07:31:47.991Z,53.25
2024-02-19T07:35:05.917Z,50.38
2024-02-19T07:38:23.519Z,51.85
2024-02-19T07:41:41.076Z,44.28
2024-02-19T07:44:58.665Z,43.28
2024-02-19T07:48:18.820Z,48.08
2024-02-19T07:51:36.710Z,52.48
2024-02-19T07:54:54.191Z,48.03
2024-02-19T07:58:12.229Z,49.85
2024-02-19T08:01:30.168Z,48.95
2024-02-19T08:04:48.122Z,48.18
2024-02-19T08:08:05.854Z,46.10
2024-02-19T08:11:25.383Z,44.08
2024-02-19T08:14:42.840Z,50.98
2024-02-19T08:18:00.498Z,50.80
2024-02-19T08:21:18.725Z,47.48
2024-02-19T08:24:36.412Z,45.28
2024-02-19T08:27:55.592Z,45.88
2024-02-19T08:31:13.702Z,60.10
2024-02-19T08:34:31.728Z,70.00
2024-02-19T08:37:49.717Z,53.05
2024-02-19T08:41:07.543Z,50.30
2024-02-19T08:44:25.946Z,50.05
2024-02-19T08:47:44.143Z,50.53
2024-02-19T08:51:03.131Z,47.83
2024-02-19T08:54:20.924Z,124.88
2024-02-19T08:57:38.540Z,88.70
2024-02-19T09:00:56.390Z,54.08
2024-02-19T09:04:14.128Z,52.00
2024-02-19T09:07:31.732Z,45.95
2024-02-19T09:10:49.397Z,51.93
2024-02-19T09:14:07.510Z,46.03
2024-02-19T09:17:25.221Z,56.73
2024-02-19T09:20:42.525Z,75.95
2024-02-19T09:24:00.237Z,56.13
2024-02-19T09:27:18.006Z,50.45
2024-02-19T09:30:35.835Z,49.38
2024-02-19T09:33:55.441Z,50.03
2024-02-19T09:37:13.610Z,46.15
2024-02-19T09:40:32.134Z,57.65
2024-02-19T09:43:50.395Z,49.05
2024-02-19T09:47:10.331Z,93.42
2024-02-19T09:50:28.098Z,107.80
2024-02-19T09:53:46.265Z,56.45
2024-02-19T09:57:04.257Z,45.80
2024-02-19T10:00:25.609Z,50.03
2024-02-19T10:03:43.245Z,58.63
2024-02-19T10:07:04.582Z,49.60
2024-02-19T10:10:23.731Z,50.48
2024-02-19T10:13:43.455Z,49.98
2024-02-19T10:17:02.313Z,191.23
2024-02-19T10:20:22.268Z,71.08
2024-02-19T10:23:40.028Z,52.63
2024-02-19T10:26:58.218Z,51.05
2024-02-19T10:30:20.988Z,51.78
2024-02-19T10:33:39.424Z,48.73
2024-02-19T10:36:57.126Z,49.13
2024-02-19T10:40:21.589Z,51.58
2024-02-19T10:43:39.346Z,50.83
2024-02-19T10:46:57.510Z,49.90
2024-02-19T10:50:20.415Z,78.08
2024-02-19T10:53:40.040Z,87.30
2024-02-19T10:56:57.817Z,79.95
2024-02-19T11:00:22.397Z,100.70
2024-02-19T11:03:51.426Z,96.53
2024-02-19T11:07:10.196Z,97.48
2024-02-19T11:10:28.183Z,84.40
2024-02-19T11:13:48.983Z,56.48
2024-02-19T11:17:06.686Z,25.33
2024-02-19T11:20:31.826Z,38.35
2024-02-19T11:23:48.909Z,35.85
2024-02-19T11:27:09.115Z,37.38
2024-02-19T11:30:26.548Z,8.10
2024-02-19T11:33:43.724Z,10.48
2024-02-19T11:37:02.706Z,7.05
2024-02-19T11:40:22.084Z,4.20
2024-02-19T11:43:40.088Z,3.80
2024-02-19T11:46:58.616Z,2.68
2024-02-19T11:50:20.978Z,4.13
2024-02-19T11:53:38.256Z,3.63
2024-02-19T11:56:59.608Z,4.85
2024-02-19T12:00:20.398Z,4.00
2024-02-19T12:03:39.640Z,3.10
2024-02-19T12:06:56.904Z,4.83
2024-02-19T12:10:17.988Z,3.55
2024-02-19T12:13:38.124Z,3.18
2024-02-19T12:16:57.200Z,3.05
2024-02-19T12:20:17.147Z,3.65
2024-02-19T12:23:34.403Z,4.03
2024-02-19T12:26:51.569Z,3.03
2024-02-19T12:30:09.209Z,2.55
2024-02-19T12:33:26.779Z,4.58
2024-02-19T12:36:44.086Z,3.40
2024-02-19T12:40:01.474Z,3.03
2024-02-19T12:43:19.198Z,3.00
2024-02-19T12:46:36.675Z,3.48
2024-02-19T12:49:55.196Z,4.33
2024-02-19T12:53:13.257Z,2.90
2024-02-19T12:56:30.893Z,4.15
2024-02-19T12:59:48.575Z,4.40
2024-02-19T13:03:06.039Z,4.50
2024-02-19T13:06:23.471Z,4.00
2024-02-19T13:09:41.782Z,5.28
2024-02-19T13:12:59.434Z,3.18
2024-02-19T13:16:18.100Z,2.63
2024-02-19T13:19:35.878Z,2.35
2024-02-19T13:22:53.319Z,2.25
2024-02-19T13:26:12.416Z,4.80
2024-02-19T13:29:29.626Z,3.13
2024-02-19T13:32:48.279Z,2.15
2024-02-19T13:36:05.808Z,4.73
2024-02-19T13:39:23.225Z,2.55
2024-02-19T13:42:40.315Z,2.90
2024-02-19T13:46:09.003Z,5.25
2024-02-19T13:49:28.391Z,4.08
2024-02-19T13:52:45.891Z,4.10
2024-02-19T13:56:03.925Z,3.35
2024-02-19T13:59:21.035Z,2.65
2024-02-19T14:02:38.200Z,6.63
2024-02-19T14:05:56.087Z,3.00
2024-02-19T14:09:13.648Z,3.83
2024-02-19T14:12:30.849Z,3.73
2024-02-19T14:15:48.247Z,3.45
2024-02-19T14:19:05.731Z,4.20
2024-02-19T14:22:24.078Z,3.13
2024-02-19T14:25:42.116Z,3.73
2024-02-19T14:28:59.884Z,4.80
2024-02-19T14:32:18.232Z,6.83
2024-02-19T14:35:35.750Z,27.98
2024-02-19T14:38:53.628Z,4.83
2024-02-19T14:42:11.949Z,10.08
2024-02-19T14:45:29.394Z,4.95
2024-02-19T14:48:47.629Z,6.45
2024-02-19T14:52:05.227Z,6.18
2024-02-19T14:55:22.716Z,4.40
2024-02-19T14:58:40.244Z,5.28
2024-02-19T15:01:57.697Z,4.83
2024-02-19T15:05:17.601Z,5.70
2024-02-19T15:08:37.807Z,4.48
2024-02-19T15:11:55.423Z,6.33
2024-02-19T15:15:17.038Z,4.30
2024-02-19T15:18:34.649Z,6.18
2024-02-19T15:21:52.229Z,3.93
2024-02-19T15:25:10.569Z,3.60
2024-02-19T15:28:27.850Z,6.50
2024-02-19T15:31:47.249Z,5.85
2024-02-19T15:35:05.238Z,4.98
2024-02-19T15:38:23.987Z,4.38
2024-02-19T15:41:41.606Z,5.35
2024-02-19T15:44:58.995Z,4.70
2024-02-19T15:48:18.071Z,8.08
2024-02-19T15:51:35.782Z,6.90
2024-02-19T15:54:54.052Z,9.60
2024-02-19T15:58:11.759Z,6.33
2024-02-19T16:01:29.530Z,7.10
2024-02-19T16:04:46.872Z,8.08
2024-02-19T16:08:04.826Z,10.45
2024-02-19T16:11:22.202Z,9.00
2024-02-19T16:14:40.853Z,10.00
2024-02-19T16:17:58.110Z,9.83
2024-02-19T16:21:15.878Z,9.60
2024-02-19T16:24:35.624Z,11.35
2024-02-19T16:27:53.132Z,11.13
2024-02-19T16:31:11.803Z,13.05
2024-02-19T16:34:29.529Z,11.58
2024-02-19T16:37:47.228Z,10.83
2024-02-19T16:41:04.430Z,13.75
2024-02-19T16:44:22.412Z,15.53
2024-02-19T16:47:39.899Z,14.13
2024-02-19T16:50:59.027Z,19.28
2024-02-19T16:54:18.394Z,15.88
2024-02-19T16:57:35.583Z,19.45
2024-02-19T17:00:55.673Z,22.95
2024-02-19T17:04:13.550Z,19.38
2024-02-19T17:07:32.028Z,21.00
2024-02-19T17:10:50.129Z,16.30
2024-02-19T17:14:07.738Z,14.38
2024-02-19T17:17:25.115Z,17.13
2024-02-19T17:20:42.451Z,13.48
2024-02-19T17:23:59.687Z,13.15
2024-02-19T17:27:17.313Z,15.28
2024-02-19T17:30:34.538Z,14.63
2024-02-19T17:33:52.169Z,12.20
2024-02-19T17:37:09.685Z,14.10
2024-02-19T17:40:28.157Z,10.33
2024-02-19T17:43:46.676Z,9.03
2024-02-19T17:47:04.894Z,10.73
2024-02-19T17:50:22.589Z,6.83
2024-02-19T17:53:39.849Z,7.85
2024-02-19T17:56:57.278Z,7.48
2024-02-19T18:00:17.643Z,7.05
2024-02-19T18:03:35.207Z,9.33
2024-02-19T18:06:52.391Z,9.45
2024-02-19T18:10:10.253Z,6.93
2024-02-19T18:13:27.454Z,8.05
2024-02-19T18:16:46.602Z,7.98
2024-02-19T18:20:03.941Z,7.70
2024-02-19T18:23:21.412Z,8.38
2024-02-19T18:26:39.570Z,8.33
2024-02-19T18:29:58.967Z,6.45
2024-02-19T18:33:18.071Z,5.15
2024-02-19T18:36:35.328Z,5.70
2024-02-19T18:39:52.453Z,6.43
2024-02-19T18:43:10.270Z,6.93
2024-02-19T18:46:27.623Z,9.48
2024-02-19T18:49:47.264Z,6.40
2024-02-19T18:53:04.890Z,7.13
2024-02-19T18:56:22.030Z,7.43
2024-02-19T18:59:41.652Z,7.15
2024-02-19T19:03:00.456Z,13.00
2024-02-19T19:06:19.943Z,7.20
2024-02-19T19:09:38.957Z,7.05
2024-02-19T19:12:56.374Z,17.33
2024-02-19T19:16:14.946Z,8.05
2024-02-19T19:19:32.281Z,8.10
2024-02-19T19:22:49.578Z,7.45
2024-02-19T19:26:07.678Z,7.53
2024-02-19T19:29:25.870Z,7.35
2024-02-19T19:32:43.175Z,8.58
2024-02-19T19:36:01.932Z,9.98
2024-02-19T19:39:19.495Z,8.45
2024-02-19T19:42:37.843Z,8.33
2024-02-19T19:45:57.219Z,10.03
2024-02-19T19:49:15.904Z,8.68
2024-02-19T19:52:35.682Z,7.98
2024-02-19T19:55:53.204Z,11.60
2024-02-19T19:59:10.990Z,10.60
2024-02-19T20:02:28.332Z,9.00
2024-02-19T20:05:46.110Z,10.50
2024-02-19T20:09:03.473Z,13.18
2024-02-19T20:12:22.316Z,9.75
2024-02-19T20:15:40.763Z,9.48
2024-02-19T20:18:58.015Z,9.53
2024-02-19T20:22:15.437Z,11.95
2024-02-19T20:25:32.964Z,12.05
2024-02-19T20:28:50.668Z,13.38
2024-02-19T20:32:09.842Z,11.68
2024-02-19T20:35:27.878Z,12.25
2024-02-19T20:38:45.418Z,13.03
2024-02-19T20:42:02.917Z,11.53
2024-02-19T20:45:22.272Z,13.53
2024-02-19T20:48:39.525Z,11.28
2024-02-19T20:51:56.755Z,11.50
2024-02-19T20:55:15.631Z,12.35
2024-02-19T20:58:33.217Z,11.38
2024-02-19T21:01:50.520Z,12.60
2024-02-19T21:05:08.513Z,12.70
2024-02-19T21:08:26.299Z,11.90
2024-02-19T21:11:43.723Z,10.30
2024-02-19T21:15:00.994Z,11.05
2024-02-19T21:18:30.617Z,9.68
2024-02-19T21:21:37.387Z,10.40
2024-02-19T21:24:54.844Z,9.20
2024-02-19T21:28:14.235Z,11.38
2024-02-19T21:31:31.584Z,11.18
2024-02-19T21:34:49.435Z,11.53
2024-02-19T21:38:06.931Z,14.18
2024-02-19T21:41:24.277Z,11.68
2024-02-19T21:44:41.821Z,13.00
2024-02-19T21:47:59.138Z,14.93
2024-02-19T21:51:17.640Z,14.48
2024-02-19T21:54:34.829Z,10.63
2024-02-19T21:57:52.736Z,10.78
2024-02-19T22:01:10.382Z,9.23
2024-02-19T22:04:27.800Z,10.03
2024-02-19T22:07:47.155Z,9.90
2024-02-19T22:11:04.672Z,9.23
2024-02-19T22:14:22.472Z,8.55
2024-02-19T22:17:39.708Z,10.63
2024-02-19T22:20:57.021Z,8.90
2024-02-19T22:24:15.284Z,9.40
2024-02-19T22:27:32.552Z,8.13
2024-02-19T22:30:49.746Z,9.10
2024-02-19T22:34:07.217Z,10.55
2024-02-19T22:37:24.549Z,9.15
2024-02-19T22:40:41.835Z,9.95
2024-02-19T22:43:59.178Z,9.75
2024-02-19T22:47:16.703Z,8.55
2024-02-19T22:50:34.332Z,12.40
2024-02-19T22:53:51.432Z,10.98
2024-02-19T23:00:31.250Z,12.58
2024-02-19T23:03:48.909Z,14.60
2024-02-19T23:07:06.222Z,15.35
2024-02-19T23:10:23.768Z,17.53
2024-02-19T23:13:41.016Z,17.28
2024-02-19T23:16:59.967Z,20.33
2024-02-19T23:20:19.850Z,17.25
2024-02-19T23:23:36.953Z,16.85
2024-02-19T23:26:54.022Z,20.28
2024-02-19T23:30:12.659Z,17.68
2024-02-19T23:33:30.006Z,18.28
2024-02-19T23:36:47.609Z,18.78
2024-02-19T23:40:06.037Z,18.10
2024-02-19T23:43:24.998Z,17.90
2024-02-19T23:46:42.378Z,19.53
2024-02-19T23:49:59.656Z,16.93
2024-02-19T23:53:17.241Z,17.20
2024-02-19T23:56:34.507Z,15.38
2024-02-19T23:59:51.661Z,16.00
